sensor_id;sensor_type;location;lat;lon;timestamp;pressure;altitude;pressure_sealevel;temperature;humidity
77452;BME280;66537;52.370;4.832;2023-06-22T00:01:55;102043.66;;;18.46;84.86
77452;BME280;66537;52.370;4.832;2023-06-22T00:04:20;102046.91;;;18.51;85.16
77452;BME280;66537;52.370;4.832;2023-06-22T00:06:46;102044.50;;;18.46;85.40
77452;BME280;66537;52.370;4.832;2023-06-22T00:09:11;102047.13;;;18.46;85.26
77452;BME280;66537;52.370;4.832;2023-06-22T00:11:37;102052.69;;;18.37;85.30
77452;BME280;66537;52.370;4.832;2023-06-22T00:14:03;102054.19;;;18.44;84.40
77452;BME280;66537;52.370;4.832;2023-06-22T00:16:29;102053.41;;;18.41;85.34
77452;BME280;66537;52.370;4.832;2023-06-22T00:18:54;102051.81;;;18.38;85.59
77452;BME280;66537;52.370;4.832;2023-06-22T00:21:19;102057.94;;;18.37;85.54
77452;BME280;66537;52.370;4.832;2023-06-22T00:23:46;102055.13;;;18.42;84.89
77452;BME280;66537;52.370;4.832;2023-06-22T00:26:11;102054.19;;;18.44;85.99
77452;BME280;66537;52.370;4.832;2023-06-22T00:28:36;102057.16;;;18.35;86.17
77452;BME280;66537;52.370;4.832;2023-06-22T00:31:02;102058.97;;;18.33;86.11
77452;BME280;66537;52.370;4.832;2023-06-22T00:33:27;102058.94;;;18.35;86.51
77452;BME280;66537;52.370;4.832;2023-06-22T00:35:53;102055.09;;;18.43;86.16
77452;BME280;66537;52.370;4.832;2023-06-22T00:38:19;102057.72;;;18.43;86.66
77452;BME280;66537;52.370;4.832;2023-06-22T00:40:45;102053.50;;;18.39;86.43
77452;BME280;66537;52.370;4.832;2023-06-22T00:43:10;102053.63;;;18.36;86.38
77452;BME280;66537;52.370;4.832;2023-06-22T00:45:35;102049.50;;;18.31;86.84
77452;BME280;66537;52.370;4.832;2023-06-22T00:48:01;102042.69;;;18.27;86.97
77452;BME280;66537;52.370;4.832;2023-06-22T00:50:30;102047.00;;;18.28;86.82
77452;BME280;66537;52.370;4.832;2023-06-22T00:53:00;102043.41;;;18.30;87.17
77452;BME280;66537;52.370;4.832;2023-06-22T00:55:26;102050.28;;;18.33;86.50
77452;BME280;66537;52.370;4.832;2023-06-22T00:57:52;102041.44;;;18.35;87.14
77452;BME280;66537;52.370;4.832;2023-06-22T01:00:22;102051.13;;;18.33;87.27
77452;BME280;66537;52.370;4.832;2023-06-22T01:02:50;102044.25;;;18.31;86.83
77452;BME280;66537;52.370;4.832;2023-06-22T01:05:18;102039.75;;;18.34;86.51
77452;BME280;66537;52.370;4.832;2023-06-22T01:10:27;102033.66;;;18.34;86.63
77452;BME280;66537;52.370;4.832;2023-06-22T01:15:45;102032.78;;;18.33;87.63
77452;BME280;66537;52.370;4.832;2023-06-22T01:18:13;102026.56;;;18.36;87.63
77452;BME280;66537;52.370;4.832;2023-06-22T01:20:40;102017.13;;;18.32;88.02
77452;BME280;66537;52.370;4.832;2023-06-22T01:23:11;102020.63;;;18.32;87.38
77452;BME280;66537;52.370;4.832;2023-06-22T01:30:49;102024.06;;;18.13;89.86
77452;BME280;66537;52.370;4.832;2023-06-22T01:33:25;102023.09;;;18.15;89.40
77452;BME280;66537;52.370;4.832;2023-06-22T01:35:51;102028.13;;;18.20;90.26
77452;BME280;66537;52.370;4.832;2023-06-22T01:38:17;102016.06;;;18.16;89.68
77452;BME280;66537;52.370;4.832;2023-06-22T01:40:42;102026.44;;;18.19;89.14
77452;BME280;66537;52.370;4.832;2023-06-22T01:43:08;102030.25;;;18.10;89.23
77452;BME280;66537;52.370;4.832;2023-06-22T01:45:33;102034.41;;;18.16;89.37
77452;BME280;66537;52.370;4.832;2023-06-22T01:48:00;102028.97;;;18.20;89.67
77452;BME280;66537;52.370;4.832;2023-06-22T01:50:26;102030.81;;;18.18;90.78
77452;BME280;66537;52.370;4.832;2023-06-22T01:52:51;102020.22;;;18.21;89.94
77452;BME280;66537;52.370;4.832;2023-06-22T01:55:16;102031.78;;;18.16;89.72
77452;BME280;66537;52.370;4.832;2023-06-22T01:57:42;102024.00;;;18.14;89.62
77452;BME280;66537;52.370;4.832;2023-06-22T02:00:11;102019.69;;;18.13;90.28
77452;BME280;66537;52.370;4.832;2023-06-22T02:02:43;102022.31;;;18.13;91.16
77452;BME280;66537;52.370;4.832;2023-06-22T02:05:09;102016.91;;;18.16;90.29
77452;BME280;66537;52.370;4.832;2023-06-22T02:07:56;102017.13;;;18.12;90.36
77452;BME280;66537;52.370;4.832;2023-06-22T02:10:25;102016.03;;;18.17;90.27
77452;BME280;66537;52.370;4.832;2023-06-22T02:12:53;102013.75;;;18.08;90.81
77452;BME280;66537;52.370;4.832;2023-06-22T02:15:19;102021.28;;;18.16;91.24
77452;BME280;66537;52.370;4.832;2023-06-22T02:17:45;102019.75;;;18.12;91.09
77452;BME280;66537;52.370;4.832;2023-06-22T02:20:14;102022.38;;;18.12;91.64
77452;BME280;66537;52.370;4.832;2023-06-22T02:22:40;102017.56;;;18.01;91.50
77452;BME280;66537;52.370;4.832;2023-06-22T02:25:06;102014.16;;;17.99;91.64
77452;BME280;66537;52.370;4.832;2023-06-22T02:27:32;102007.94;;;18.01;92.26
77452;BME280;66537;52.370;4.832;2023-06-22T02:29:57;102002.56;;;18.04;92.24
77452;BME280;66537;52.370;4.832;2023-06-22T02:32:23;102007.25;;;17.96;92.93
77452;BME280;66537;52.370;4.832;2023-06-22T02:34:48;102006.34;;;17.97;93.45
77452;BME280;66537;52.370;4.832;2023-06-22T02:37:14;102010.00;;;17.93;93.38
77452;BME280;66537;52.370;4.832;2023-06-22T02:39:40;102010.09;;;17.92;92.45
77452;BME280;66537;52.370;4.832;2023-06-22T02:42:06;102013.81;;;17.86;94.02
77452;BME280;66537;52.370;4.832;2023-06-22T02:44:31;102008.38;;;17.91;94.46
77452;BME280;66537;52.370;4.832;2023-06-22T02:46:57;102007.50;;;17.90;94.56
77452;BME280;66537;52.370;4.832;2023-06-22T02:49:22;102005.88;;;17.88;94.62
77452;BME280;66537;52.370;4.832;2023-06-22T02:51:48;102006.59;;;17.91;93.90
77452;BME280;66537;52.370;4.832;2023-06-22T02:54:14;102007.16;;;17.99;94.78
77452;BME280;66537;52.370;4.832;2023-06-22T02:56:39;102010.00;;;17.93;93.86
77452;BME280;66537;52.370;4.832;2023-06-22T02:59:06;102005.56;;;17.95;93.38
77452;BME280;66537;52.370;4.832;2023-06-22T03:01:31;102003.84;;;17.94;94.14
77452;BME280;66537;52.370;4.832;2023-06-22T03:04:01;102002.88;;;17.97;95.38
77452;BME280;66537;52.370;4.832;2023-06-22T03:06:26;101996.94;;;17.93;94.70
77452;BME280;66537;52.370;4.832;2023-06-22T03:08:59;102001.97;;;17.98;93.24
77452;BME280;66537;52.370;4.832;2023-06-22T03:11:25;102001.78;;;18.02;93.55
77452;BME280;66537;52.370;4.832;2023-06-22T03:13:50;101989.69;;;18.00;95.21
77452;BME280;66537;52.370;4.832;2023-06-22T03:16:18;102000.00;;;18.03;94.67
77452;BME280;66537;52.370;4.832;2023-06-22T03:18:43;102002.22;;;17.92;95.04
77452;BME280;66537;52.370;4.832;2023-06-22T03:21:09;102000.50;;;17.91;94.97
77452;BME280;66537;52.370;4.832;2023-06-22T03:23:34;102002.22;;;17.92;94.44
77452;BME280;66537;52.370;4.832;2023-06-22T03:26:00;101997.25;;;17.86;95.56
77452;BME280;66537;52.370;4.832;2023-06-22T03:28:25;101998.59;;;17.94;94.54
77452;BME280;66537;52.370;4.832;2023-06-22T03:30:50;102002.09;;;17.95;95.44
77452;BME280;66537;52.370;4.832;2023-06-22T03:33:16;102011.91;;;17.90;96.02
77452;BME280;66537;52.370;4.832;2023-06-22T03:35:41;102010.88;;;17.94;95.86
77452;BME280;66537;52.370;4.832;2023-06-22T03:38:07;101999.38;;;17.98;95.88
77452;BME280;66537;52.370;4.832;2023-06-22T03:40:32;101991.53;;;17.96;95.52
77452;BME280;66537;52.370;4.832;2023-06-22T03:42:58;101987.25;;;17.95;95.46
77452;BME280;66537;52.370;4.832;2023-06-22T03:45:23;101974.22;;;17.94;96.00
77452;BME280;66537;52.370;4.832;2023-06-22T03:47:48;101986.44;;;17.93;96.68
77452;BME280;66537;52.370;4.832;2023-06-22T03:50:14;101974.41;;;17.89;96.53
77452;BME280;66537;52.370;4.832;2023-06-22T03:52:40;101979.31;;;17.97;96.48
77452;BME280;66537;52.370;4.832;2023-06-22T03:55:06;101975.00;;;17.96;95.48
77452;BME280;66537;52.370;4.832;2023-06-22T03:57:32;101973.28;;;17.95;95.48
77452;BME280;66537;52.370;4.832;2023-06-22T03:59:57;101977.56;;;17.97;96.40
77452;BME280;66537;52.370;4.832;2023-06-22T04:02:23;101987.97;;;17.99;96.46
77452;BME280;66537;52.370;4.832;2023-06-22T04:04:49;101993.84;;;18.04;95.75
77452;BME280;66537;52.370;4.832;2023-06-22T04:07:14;101982.09;;;18.14;95.58
77452;BME280;66537;52.370;4.832;2023-06-22T04:09:40;101983.66;;;18.18;95.82
77452;BME280;66537;52.370;4.832;2023-06-22T04:12:05;101976.06;;;18.12;95.15
77452;BME280;66537;52.370;4.832;2023-06-22T04:14:31;101982.22;;;18.11;95.27
77452;BME280;66537;52.370;4.832;2023-06-22T04:16:57;101984.22;;;18.04;96.51
77452;BME280;66537;52.370;4.832;2023-06-22T04:19:22;101974.16;;;18.16;95.84
77452;BME280;66537;52.370;4.832;2023-06-22T04:21:48;101973.97;;;18.20;95.31
77452;BME280;66537;52.370;4.832;2023-06-22T04:24:14;101973.06;;;18.21;95.38
77452;BME280;66537;52.370;4.832;2023-06-22T04:26:39;101971.44;;;18.19;95.11
77452;BME280;66537;52.370;4.832;2023-06-22T04:29:07;101966.56;;;18.30;95.17
77452;BME280;66537;52.370;4.832;2023-06-22T04:31:34;101963.63;;;18.17;96.13
77452;BME280;66537;52.370;4.832;2023-06-22T04:34:02;101973.78;;;18.25;95.68
77452;BME280;66537;52.370;4.832;2023-06-22T04:36:38;101976.72;;;18.37;94.37
77452;BME280;66537;52.370;4.832;2023-06-22T04:39:09;101978.94;;;18.48;94.04
77452;BME280;66537;52.370;4.832;2023-06-22T04:41:35;101977.09;;;18.50;93.72
77452;BME280;66537;52.370;4.832;2023-06-22T04:44:33;101983.03;;;18.53;93.21
77452;BME280;66537;52.370;4.832;2023-06-22T04:47:01;101984.47;;;18.60;92.91
77452;BME280;66537;52.370;4.832;2023-06-22T04:49:29;101977.28;;;18.65;92.93
77452;BME280;66537;52.370;4.832;2023-06-22T04:52:08;101972.31;;;18.78;91.83
77452;BME280;66537;52.370;4.832;2023-06-22T04:54:35;101977.09;;;18.88;91.13
77452;BME280;66537;52.370;4.832;2023-06-22T04:57:01;101983.75;;;18.96;90.26
77452;BME280;66537;52.370;4.832;2023-06-22T04:59:29;101984.28;;;19.04;90.49
77452;BME280;66537;52.370;4.832;2023-06-22T05:01:59;101986.09;;;19.20;89.07
77452;BME280;66537;52.370;4.832;2023-06-22T05:04:25;101989.19;;;19.30;88.76
77452;BME280;66537;52.370;4.832;2023-06-22T05:06:53;101982.09;;;19.50;88.43
77452;BME280;66537;52.370;4.832;2023-06-22T05:09:19;101977.19;;;19.61;87.38
77452;BME280;66537;52.370;4.832;2023-06-22T05:11:44;101983.84;;;19.68;86.68
77452;BME280;66537;52.370;4.832;2023-06-22T05:14:10;101984.00;;;19.83;85.78
77452;BME280;66537;52.370;4.832;2023-06-22T05:16:36;101979.16;;;19.92;86.27
77452;BME280;66537;52.370;4.832;2023-06-22T05:19:02;101975.94;;;20.04;85.45
77452;BME280;66537;52.370;4.832;2023-06-22T05:21:29;101977.56;;;20.07;85.21
77452;BME280;66537;52.370;4.832;2023-06-22T05:23:55;101974.88;;;20.25;84.93
77452;BME280;66537;52.370;4.832;2023-06-22T05:26:25;101969.38;;;20.13;83.95
77452;BME280;66537;52.370;4.832;2023-06-22T05:28:50;101975.16;;;20.36;83.88
77452;BME280;66537;52.370;4.832;2023-06-22T05:31:16;101967.28;;;20.53;82.85
77452;BME280;66537;52.370;4.832;2023-06-22T05:33:43;101969.56;;;21.56;78.97
77452;BME280;66537;52.370;4.832;2023-06-22T05:36:09;101967.84;;;22.74;75.67
77452;BME280;66537;52.370;4.832;2023-06-22T05:38:36;101964.25;;;23.58;70.64
77452;BME280;66537;52.370;4.832;2023-06-22T05:41:01;101975.03;;;24.21;67.51
77452;BME280;66537;52.370;4.832;2023-06-22T05:43:27;101974.75;;;24.88;66.09
77452;BME280;66537;52.370;4.832;2023-06-22T05:45:52;101981.19;;;24.84;64.71
77452;BME280;66537;52.370;4.832;2023-06-22T05:48:18;101974.16;;;25.21;64.56
77452;BME280;66537;52.370;4.832;2023-06-22T05:50:43;101967.31;;;25.42;63.98
77452;BME280;66537;52.370;4.832;2023-06-22T05:53:08;101968.66;;;25.24;64.19
77452;BME280;66537;52.370;4.832;2023-06-22T05:55:34;101975.28;;;24.93;65.04
77452;BME280;66537;52.370;4.832;2023-06-22T05:57:59;101970.06;;;24.91;65.32
77452;BME280;66537;52.370;4.832;2023-06-22T06:00:25;101974.53;;;24.53;66.19
77452;BME280;66537;52.370;4.832;2023-06-22T06:02:50;101982.13;;;25.08;65.11
77452;BME280;66537;52.370;4.832;2023-06-22T06:05:16;101987.63;;;25.54;63.35
77452;BME280;66537;52.370;4.832;2023-06-22T06:07:42;101968.75;;;25.82;62.73
77452;BME280;66537;52.370;4.832;2023-06-22T06:10:08;101973.38;;;26.37;61.45
77452;BME280;66537;52.370;4.832;2023-06-22T06:12:34;101976.91;;;26.37;61.61
77452;BME280;66537;52.370;4.832;2023-06-22T06:14:59;101981.63;;;26.56;60.09
77452;BME280;66537;52.370;4.832;2023-06-22T06:17:25;101975.44;;;25.75;60.96
77452;BME280;66537;52.370;4.832;2023-06-22T06:19:50;101983.19;;;25.18;62.37
77452;BME280;66537;52.370;4.832;2023-06-22T06:22:16;101973.03;;;24.37;65.10
77452;BME280;66537;52.370;4.832;2023-06-22T06:24:41;101976.19;;;24.16;65.66
77452;BME280;66537;52.370;4.832;2023-06-22T06:27:06;101980.03;;;24.50;65.74
77452;BME280;66537;52.370;4.832;2023-06-22T06:29:33;101972.66;;;25.17;63.64
77452;BME280;66537;52.370;4.832;2023-06-22T06:31:58;101963.16;;;25.74;61.95
77452;BME280;66537;52.370;4.832;2023-06-22T06:34:24;101970.28;;;26.54;59.44
77452;BME280;66537;52.370;4.832;2023-06-22T06:36:49;101973.78;;;27.43;59.64
77452;BME280;66537;52.370;4.832;2023-06-22T06:39:15;101970.25;;;27.53;56.59
77452;BME280;66537;52.370;4.832;2023-06-22T06:41:41;101966.34;;;28.62;54.46
77452;BME280;66537;52.370;4.832;2023-06-22T06:44:06;101968.16;;;28.41;54.91
77452;BME280;66537;52.370;4.832;2023-06-22T06:46:32;101963.38;;;28.86;54.14
77452;BME280;66537;52.370;4.832;2023-06-22T06:48:57;101975.56;;;27.96;56.17
77452;BME280;66537;52.370;4.832;2023-06-22T06:51:23;101972.66;;;28.20;54.92
77452;BME280;66537;52.370;4.832;2023-06-22T06:53:48;101972.84;;;27.76;55.19
77452;BME280;66537;52.370;4.832;2023-06-22T06:56:13;101972.41;;;27.59;55.66
77452;BME280;66537;52.370;4.832;2023-06-22T06:58:42;101968.84;;;27.81;55.22
77452;BME280;66537;52.370;4.832;2023-06-22T07:01:08;101970.00;;;27.56;54.92
77452;BME280;66537;52.370;4.832;2023-06-22T07:03:34;101960.97;;;28.32;53.88
77452;BME280;66537;52.370;4.832;2023-06-22T07:06:00;101958.41;;;28.51;53.72
77452;BME280;66537;52.370;4.832;2023-06-22T07:08:25;101953.66;;;28.34;53.42
77452;BME280;66537;52.370;4.832;2023-06-22T07:10:51;101957.50;;;28.20;54.26
77452;BME280;66537;52.370;4.832;2023-06-22T07:13:17;101958.69;;;27.75;54.71
77452;BME280;66537;52.370;4.832;2023-06-22T07:15:42;101963.97;;;27.86;55.37
77452;BME280;66537;52.370;4.832;2023-06-22T07:18:08;101959.72;;;28.57;54.11
77452;BME280;66537;52.370;4.832;2023-06-22T07:20:33;101953.13;;;29.21;52.95
77452;BME280;66537;52.370;4.832;2023-06-22T07:22:58;101954.28;;;28.37;52.39
77452;BME280;66537;52.370;4.832;2023-06-22T07:25:24;101954.66;;;28.84;52.82
77452;BME280;66537;52.370;4.832;2023-06-22T07:28:04;101961.59;;;28.24;53.10
77452;BME280;66537;52.370;4.832;2023-06-22T07:30:31;101955.38;;;26.75;56.50
77452;BME280;66537;52.370;4.832;2023-06-22T07:32:57;101957.97;;;27.73;55.46
77452;BME280;66537;52.370;4.832;2023-06-22T07:35:23;101953.38;;;27.43;56.47
77452;BME280;66537;52.370;4.832;2023-06-22T07:37:49;101956.53;;;28.63;53.99
77452;BME280;66537;52.370;4.832;2023-06-22T07:40:14;101948.47;;;29.13;52.90
77452;BME280;66537;52.370;4.832;2023-06-22T07:42:39;101945.88;;;29.42;52.19
77452;BME280;66537;52.370;4.832;2023-06-22T07:45:06;101948.38;;;28.94;52.57
77452;BME280;66537;52.370;4.832;2023-06-22T07:47:33;101950.97;;;28.45;53.44
77452;BME280;66537;52.370;4.832;2023-06-22T07:50:00;101934.88;;;28.86;52.73
77452;BME280;66537;52.370;4.832;2023-06-22T07:52:26;101933.59;;;28.81;51.12
77452;BME280;66537;52.370;4.832;2023-06-22T07:54:52;101936.50;;;29.08;51.52
77452;BME280;66537;52.370;4.832;2023-06-22T07:57:17;101929.63;;;28.96;51.11
77452;BME280;66537;52.370;4.832;2023-06-22T07:59:43;101926.03;;;29.16;50.29
77452;BME280;66537;52.370;4.832;2023-06-22T08:02:09;101928.19;;;29.79;50.13
77452;BME280;66537;52.370;4.832;2023-06-22T08:04:35;101931.03;;;30.53;48.52
77452;BME280;66537;52.370;4.832;2023-06-22T08:07:01;101918.13;;;30.85;47.79
77452;BME280;66537;52.370;4.832;2023-06-22T08:09:31;101919.91;;;30.57;47.90
77452;BME280;66537;52.370;4.832;2023-06-22T08:11:57;101916.94;;;29.18;49.70
77452;BME280;66537;52.370;4.832;2023-06-22T08:14:23;101917.78;;;30.61;47.37
77452;BME280;66537;52.370;4.832;2023-06-22T08:16:49;101906.06;;;30.44;46.95
77452;BME280;66537;52.370;4.832;2023-06-22T08:19:14;101906.81;;;31.18;46.24
77452;BME280;66537;52.370;4.832;2023-06-22T08:21:40;101913.59;;;31.40;46.71
77452;BME280;66537;52.370;4.832;2023-06-22T08:24:05;101913.09;;;30.99;46.77
77452;BME280;66537;52.370;4.832;2023-06-22T08:26:32;101915.22;;;30.69;47.20
77452;BME280;66537;52.370;4.832;2023-06-22T08:29:01;101907.06;;;30.97;46.03
77452;BME280;66537;52.370;4.832;2023-06-22T08:31:26;101905.63;;;30.85;47.02
77452;BME280;66537;52.370;4.832;2023-06-22T08:33:52;101903.31;;;30.07;47.48
77452;BME280;66537;52.370;4.832;2023-06-22T08:36:17;101905.53;;;30.68;46.50
77452;BME280;66537;52.370;4.832;2023-06-22T08:38:43;101899.28;;;29.84;48.28
77452;BME280;66537;52.370;4.832;2023-06-22T08:41:09;101897.81;;;30.18;48.07
77452;BME280;66537;52.370;4.832;2023-06-22T08:43:35;101894.09;;;29.92;47.78
77452;BME280;66537;52.370;4.832;2023-06-22T08:46:00;101895.47;;;29.39;48.54
77452;BME280;66537;52.370;4.832;2023-06-22T08:48:27;101897.56;;;28.77;49.95
77452;BME280;66537;52.370;4.832;2023-06-22T08:50:53;101893.66;;;29.39;49.62
77452;BME280;66537;52.370;4.832;2023-06-22T08:53:18;101904.09;;;28.93;50.88
77452;BME280;66537;52.370;4.832;2023-06-22T08:55:44;101889.69;;;28.66;50.26
77452;BME280;66537;52.370;4.832;2023-06-22T08:58:10;101888.63;;;28.78;50.44
77452;BME280;66537;52.370;4.832;2023-06-22T09:00:36;101889.75;;;29.44;49.97
77452;BME280;66537;52.370;4.832;2023-06-22T09:03:02;101877.78;;;29.67;49.95
77452;BME280;66537;52.370;4.832;2023-06-22T09:05:29;101878.81;;;28.78;51.52
77452;BME280;66537;52.370;4.832;2023-06-22T09:07:56;101894.78;;;28.78;52.14
77452;BME280;66537;52.370;4.832;2023-06-22T09:10:21;101883.50;;;29.05;51.17
77452;BME280;66537;52.370;4.832;2023-06-22T09:12:47;101881.47;;;28.18;51.34
77452;BME280;66537;52.370;4.832;2023-06-22T09:15:12;101880.81;;;28.95;51.46
77452;BME280;66537;52.370;4.832;2023-06-22T09:17:38;101890.75;;;28.23;52.45
77452;BME280;66537;52.370;4.832;2023-06-22T09:20:03;101896.59;;;28.78;51.04
77452;BME280;66537;52.370;4.832;2023-06-22T09:22:31;101883.19;;;28.98;52.05
77452;BME280;66537;52.370;4.832;2023-06-22T09:24:57;101879.53;;;28.20;54.29
77452;BME280;66537;52.370;4.832;2023-06-22T09:27:22;101882.56;;;28.66;52.60
77452;BME280;66537;52.370;4.832;2023-06-22T09:29:48;101878.94;;;28.77;52.98
77452;BME280;66537;52.370;4.832;2023-06-22T09:32:13;101870.00;;;28.87;52.23
77452;BME280;66537;52.370;4.832;2023-06-22T09:34:39;101871.53;;;28.50;53.49
77452;BME280;66537;52.370;4.832;2023-06-22T09:37:05;101873.19;;;28.41;53.14
77452;BME280;66537;52.370;4.832;2023-06-22T09:39:30;101880.50;;;27.78;55.42
77452;BME280;66537;52.370;4.832;2023-06-22T09:41:59;101884.25;;;27.75;54.72
77452;BME280;66537;52.370;4.832;2023-06-22T09:44:25;101883.91;;;27.68;55.37
77452;BME280;66537;52.370;4.832;2023-06-22T09:46:50;101883.94;;;28.10;54.37
77452;BME280;66537;52.370;4.832;2023-06-22T09:49:15;101873.91;;;27.61;55.57
77452;BME280;66537;52.370;4.832;2023-06-22T09:51:41;101882.31;;;27.77;55.44
77452;BME280;66537;52.370;4.832;2023-06-22T09:54:06;101883.75;;;27.07;56.14
77452;BME280;66537;52.370;4.832;2023-06-22T09:56:32;101889.84;;;26.87;57.10
77452;BME280;66537;52.370;4.832;2023-06-22T09:58:57;101869.56;;;26.63;57.78
77452;BME280;66537;52.370;4.832;2023-06-22T10:01:23;101871.69;;;26.69;57.48
77452;BME280;66537;52.370;4.832;2023-06-22T10:03:49;101868.34;;;26.45;57.80
77452;BME280;66537;52.370;4.832;2023-06-22T10:06:15;101864.81;;;26.89;57.42
77452;BME280;66537;52.370;4.832;2023-06-22T10:08:40;101863.28;;;26.87;56.56
77452;BME280;66537;52.370;4.832;2023-06-22T10:11:06;101860.88;;;26.84;56.84
77452;BME280;66537;52.370;4.832;2023-06-22T10:13:31;101856.88;;;26.67;56.70
77452;BME280;66537;52.370;4.832;2023-06-22T10:15:57;101852.56;;;26.77;56.88
77452;BME280;66537;52.370;4.832;2023-06-22T10:18:22;101853.75;;;26.51;57.99
77452;BME280;66537;52.370;4.832;2023-06-22T10:20:49;101852.56;;;26.77;56.80
77452;BME280;66537;52.370;4.832;2023-06-22T10:23:20;101852.03;;;26.83;56.51
77452;BME280;66537;52.370;4.832;2023-06-22T10:25:46;101852.84;;;27.06;55.91
77452;BME280;66537;52.370;4.832;2023-06-22T10:28:12;101850.63;;;26.57;56.59
77452;BME280;66537;52.370;4.832;2023-06-22T10:30:41;101845.53;;;26.54;57.22
77452;BME280;66537;52.370;4.832;2023-06-22T10:33:10;101860.75;;;26.30;57.73
77452;BME280;66537;52.370;4.832;2023-06-22T10:35:36;101856.44;;;25.94;59.45
77452;BME280;66537;52.370;4.832;2023-06-22T10:38:05;101854.38;;;26.32;58.51
77452;BME280;66537;52.370;4.832;2023-06-22T10:40:31;101846.22;;;27.00;58.20
77452;BME280;66537;52.370;4.832;2023-06-22T10:42:56;101855.00;;;27.12;56.97
77452;BME280;66537;52.370;4.832;2023-06-22T10:45:22;101856.28;;;27.60;56.62
77452;BME280;66537;52.370;4.832;2023-06-22T10:47:48;101861.69;;;26.62;57.28
77452;BME280;66537;52.370;4.832;2023-06-22T10:50:13;101856.13;;;26.87;57.45
77452;BME280;66537;52.370;4.832;2023-06-22T10:52:39;101855.66;;;26.93;57.68
77452;BME280;66537;52.370;4.832;2023-06-22T10:55:06;101850.16;;;26.19;59.12
77452;BME280;66537;52.370;4.832;2023-06-22T10:57:32;101848.31;;;26.08;59.26
77452;BME280;66537;52.370;4.832;2023-06-22T10:59:57;101853.78;;;25.94;58.85
77452;BME280;66537;52.370;4.832;2023-06-22T11:02:23;101846.16;;;25.78;59.50
77452;BME280;66537;52.370;4.832;2023-06-22T11:04:49;101846.38;;;26.10;59.72
77452;BME280;66537;52.370;4.832;2023-06-22T11:07:15;101842.31;;;25.82;59.65
77452;BME280;66537;52.370;4.832;2023-06-22T11:09:40;101850.66;;;25.43;60.75
77452;BME280;66537;52.370;4.832;2023-06-22T11:12:06;101847.19;;;25.54;60.44
77452;BME280;66537;52.370;4.832;2023-06-22T11:14:31;101851.41;;;25.09;61.88
77452;BME280;66537;52.370;4.832;2023-06-22T11:16:59;101846.59;;;25.50;61.45
77452;BME280;66537;52.370;4.832;2023-06-22T11:19:24;101846.00;;;25.11;61.86
77452;BME280;66537;52.370;4.832;2023-06-22T11:21:49;101844.09;;;25.13;60.65
77452;BME280;66537;52.370;4.832;2023-06-22T11:24:16;101846.09;;;24.85;62.38
77452;BME280;66537;52.370;4.832;2023-06-22T11:26:41;101852.59;;;24.81;62.77
77452;BME280;66537;52.370;4.832;2023-06-22T11:29:07;101854.88;;;24.86;62.42
77452;BME280;66537;52.370;4.832;2023-06-22T11:31:34;101855.81;;;24.97;62.57
77452;BME280;66537;52.370;4.832;2023-06-22T11:33:59;101858.28;;;24.88;62.40
77452;BME280;66537;52.370;4.832;2023-06-22T11:36:25;101850.75;;;25.18;62.56
77452;BME280;66537;52.370;4.832;2023-06-22T11:38:51;101846.28;;;25.19;61.70
77452;BME280;66537;52.370;4.832;2023-06-22T11:41:16;101843.16;;;25.14;61.50
77452;BME280;66537;52.370;4.832;2023-06-22T11:43:42;101848.66;;;24.87;63.09
77452;BME280;66537;52.370;4.832;2023-06-22T11:46:07;101844.91;;;24.89;62.68
77452;BME280;66537;52.370;4.832;2023-06-22T11:48:33;101839.88;;;24.74;62.31
77452;BME280;66537;52.370;4.832;2023-06-22T11:50:58;101833.81;;;24.97;62.78
77452;BME280;66537;52.370;4.832;2023-06-22T11:53:26;101837.00;;;25.13;62.49
77452;BME280;66537;52.370;4.832;2023-06-22T11:55:51;101823.91;;;24.99;62.71
77452;BME280;66537;52.370;4.832;2023-06-22T11:58:19;101823.31;;;25.19;62.41
77452;BME280;66537;52.370;4.832;2023-06-22T12:00:44;101823.53;;;25.16;62.45
77452;BME280;66537;52.370;4.832;2023-06-22T12:03:10;101818.91;;;25.31;61.48
77452;BME280;66537;52.370;4.832;2023-06-22T12:05:36;101815.41;;;25.30;61.15
77452;BME280;66537;52.370;4.832;2023-06-22T12:08:05;101817.56;;;25.01;62.32
77452;BME280;66537;52.370;4.832;2023-06-22T12:10:30;101812.44;;;25.11;61.24
77452;BME280;66537;52.370;4.832;2023-06-22T12:12:56;101808.72;;;25.14;61.97
77452;BME280;66537;52.370;4.832;2023-06-22T12:15:23;101811.97;;;25.17;61.96
77452;BME280;66537;52.370;4.832;2023-06-22T12:17:48;101801.28;;;24.95;61.93
77452;BME280;66537;52.370;4.832;2023-06-22T12:20:13;101801.84;;;25.11;61.81
77452;BME280;66537;52.370;4.832;2023-06-22T12:22:40;101794.59;;;24.66;62.21
77452;BME280;66537;52.370;4.832;2023-06-22T12:25:06;101798.44;;;24.49;62.07
77452;BME280;66537;52.370;4.832;2023-06-22T12:27:35;101796.06;;;24.70;62.61
77452;BME280;66537;52.370;4.832;2023-06-22T12:30:00;101791.84;;;24.67;61.86
77452;BME280;66537;52.370;4.832;2023-06-22T12:32:26;101791.47;;;24.84;61.53
77452;BME280;66537;52.370;4.832;2023-06-22T12:34:51;101787.94;;;24.96;61.79
77452;BME280;66537;52.370;4.832;2023-06-22T12:37:17;101788.47;;;25.13;61.31
77452;BME280;66537;52.370;4.832;2023-06-22T12:39:43;101794.56;;;24.78;61.88
77452;BME280;66537;52.370;4.832;2023-06-22T12:42:08;101784.97;;;24.77;60.58
77452;BME280;66537;52.370;4.832;2023-06-22T12:44:35;101784.09;;;24.77;60.33
77452;BME280;66537;52.370;4.832;2023-06-22T12:47:00;101781.00;;;24.70;60.66
77452;BME280;66537;52.370;4.832;2023-06-22T12:49:26;101777.09;;;24.76;60.15
77452;BME280;66537;52.370;4.832;2023-06-22T12:51:51;101777.22;;;24.98;60.65
77452;BME280;66537;52.370;4.832;2023-06-22T12:54:16;101768.53;;;24.72;61.19
77452;BME280;66537;52.370;4.832;2023-06-22T12:56:42;101773.19;;;24.69;61.08